sensor_id;sensor_type;location;lat;lon;timestamp;P1;durP1;ratioP1;P2;durP2;ratioP2
41514;SDS011;27247;48.020;16.720;2022-11-04T00:02:02;90.70;;;40.30;;
41514;SDS011;27247;48.020;16.720;2022-11-04T00:06:13;97.43;;;41.08;;
41514;SDS011;27247;48.020;16.720;2022-11-04T00:10:23;98.00;;;44.85;;
41514;SDS011;27247;48.020;16.720;2022-11-04T00:14:53;109.95;;;49.13;;
41514;SDS011;27247;48.020;16.720;2022-11-04T00:19:24;110.82;;;47.80;;
41514;SDS011;27247;48.020;16.720;2022-11-04T00:23:34;109.03;;;48.25;;
41514;SDS011;27247;48.020;16.720;2022-11-04T00:28:04;125.43;;;53.78;;
41514;SDS011;27247;48.020;16.720;2022-11-04T00:32:38;112.28;;;48.80;;
41514;SDS011;27247;48.020;16.720;2022-11-04T00:37:07;123.75;;;51.75;;
41514;SDS011;27247;48.020;16.720;2022-11-04T00:41:17;128.60;;;56.57;;
41514;SDS011;27247;48.020;16.720;2022-11-04T00:45:39;134.77;;;57.40;;
41514;SDS011;27247;48.020;16.720;2022-11-04T00:49:50;136.20;;;57.50;;
41514;SDS011;27247;48.020;16.720;2022-11-04T00:54:01;141.60;;;61.60;;
41514;SDS011;27247;48.020;16.720;2022-11-04T00:58:11;138.65;;;60.83;;
41514;SDS011;27247;48.020;16.720;2022-11-04T01:02:22;137.67;;;61.73;;
41514;SDS011;27247;48.020;16.720;2022-11-04T01:06:32;140.85;;;62.28;;
41514;SDS011;27247;48.020;16.720;2022-11-04T01:10:43;144.57;;;60.60;;
41514;SDS011;27247;48.020;16.720;2022-11-04T01:14:53;136.63;;;60.33;;
41514;SDS011;27247;48.020;16.720;2022-11-04T01:19:04;138.93;;;59.85;;
41514;SDS011;27247;48.020;16.720;2022-11-04T01:23:14;142.55;;;61.10;;
41514;SDS011;27247;48.020;16.720;2022-11-04T01:27:25;134.80;;;59.17;;
41514;SDS011;27247;48.020;16.720;2022-11-04T01:31:36;133.35;;;59.28;;
41514;SDS011;27247;48.020;16.720;2022-11-04T01:35:46;132.75;;;55.70;;
41514;SDS011;27247;48.020;16.720;2022-11-04T01:39:56;141.77;;;57.93;;
41514;SDS011;27247;48.020;16.720;2022-11-04T01:48:51;118.45;;;52.40;;
41514;SDS011;27247;48.020;16.720;2022-11-04T01:53:08;129.90;;;52.13;;
41514;SDS011;27247;48.020;16.720;2022-11-04T01:57:27;123.60;;;49.67;;
41514;SDS011;27247;48.020;16.720;2022-11-04T02:01:43;128.25;;;52.97;;
41514;SDS011;27247;48.020;16.720;2022-11-04T02:05:53;121.47;;;48.40;;
41514;SDS011;27247;48.020;16.720;2022-11-04T02:10:04;116.82;;;49.22;;
41514;SDS011;27247;48.020;16.720;2022-11-04T02:14:14;122.82;;;50.60;;
41514;SDS011;27247;48.020;16.720;2022-11-04T02:22:47;113.85;;;46.70;;
41514;SDS011;27247;48.020;16.720;2022-11-04T02:32:13;112.50;;;46.75;;
41514;SDS011;27247;48.020;16.720;2022-11-04T02:49:37;100.10;;;42.03;;
41514;SDS011;27247;48.020;16.720;2022-11-04T02:58:22;107.20;;;43.53;;
41514;SDS011;27247;48.020;16.720;2022-11-04T03:06:57;106.85;;;43.10;;
41514;SDS011;27247;48.020;16.720;2022-11-04T03:11:10;99.15;;;42.83;;
41514;SDS011;27247;48.020;16.720;2022-11-04T03:15:26;97.60;;;40.97;;
41514;SDS011;27247;48.020;16.720;2022-11-04T03:23:56;104.47;;;44.95;;
41514;SDS011;27247;48.020;16.720;2022-11-04T03:28:11;106.13;;;44.22;;
41514;SDS011;27247;48.020;16.720;2022-11-04T03:32:42;97.25;;;43.33;;
41514;SDS011;27247;48.020;16.720;2022-11-04T03:37:11;105.60;;;45.25;;
41514;SDS011;27247;48.020;16.720;2022-11-04T03:41:33;102.57;;;42.97;;
41514;SDS011;27247;48.020;16.720;2022-11-04T03:45:49;107.40;;;42.65;;
41514;SDS011;27247;48.020;16.720;2022-11-04T03:50:08;101.95;;;42.22;;
41514;SDS011;27247;48.020;16.720;2022-11-04T03:54:27;105.80;;;42.15;;
41514;SDS011;27247;48.020;16.720;2022-11-04T03:58:49;107.28;;;43.50;;
41514;SDS011;27247;48.020;16.720;2022-11-04T04:03:16;95.68;;;40.92;;
41514;SDS011;27247;48.020;16.720;2022-11-04T04:07:37;92.68;;;40.97;;
41514;SDS011;27247;48.020;16.720;2022-11-04T04:11:54;106.88;;;44.25;;
41514;SDS011;27247;48.020;16.720;2022-11-04T04:16:28;111.28;;;42.97;;
41514;SDS011;27247;48.020;16.720;2022-11-04T04:20:41;109.25;;;45.22;;
41514;SDS011;27247;48.020;16.720;2022-11-04T04:24:57;113.20;;;43.58;;
41514;SDS011;27247;48.020;16.720;2022-11-04T04:29:29;104.32;;;44.95;;
41514;SDS011;27247;48.020;16.720;2022-11-04T04:33:40;110.68;;;47.08;;
41514;SDS011;27247;48.020;16.720;2022-11-04T04:37:51;111.60;;;45.20;;
41514;SDS011;27247;48.020;16.720;2022-11-04T04:42:04;106.68;;;45.80;;
41514;SDS011;27247;48.020;16.720;2022-11-04T04:46:34;112.05;;;47.88;;
41514;SDS011;27247;48.020;16.720;2022-11-04T04:50:47;112.68;;;48.83;;
41514;SDS011;27247;48.020;16.720;2022-11-04T04:55:00;119.57;;;46.53;;
41514;SDS011;27247;48.020;16.720;2022-11-04T04:59:10;119.73;;;48.70;;
41514;SDS011;27247;48.020;16.720;2022-11-04T05:03:20;123.13;;;53.00;;
41514;SDS011;27247;48.020;16.720;2022-11-04T05:07:33;118.63;;;47.90;;
41514;SDS011;27247;48.020;16.720;2022-11-04T05:11:44;121.85;;;50.20;;
41514;SDS011;27247;48.020;16.720;2022-11-04T05:16:04;119.43;;;47.80;;
41514;SDS011;27247;48.020;16.720;2022-11-04T05:20:16;111.82;;;49.83;;
41514;SDS011;27247;48.020;16.720;2022-11-04T05:24:26;124.00;;;49.17;;
41514;SDS011;27247;48.020;16.720;2022-11-04T05:28:36;115.85;;;50.10;;
41514;SDS011;27247;48.020;16.720;2022-11-04T05:32:47;126.57;;;49.28;;
41514;SDS011;27247;48.020;16.720;2022-11-04T05:36:58;121.30;;;48.40;;
41514;SDS011;27247;48.020;16.720;2022-11-04T05:41:09;123.65;;;50.50;;
41514;SDS011;27247;48.020;16.720;2022-11-04T05:45:21;127.93;;;52.40;;
41514;SDS011;27247;48.020;16.720;2022-11-04T05:49:31;120.40;;;50.13;;
41514;SDS011;27247;48.020;16.720;2022-11-04T05:53:42;117.20;;;49.35;;
41514;SDS011;27247;48.020;16.720;2022-11-04T05:57:53;120.25;;;51.13;;
41514;SDS011;27247;48.020;16.720;2022-11-04T06:02:03;118.07;;;50.30;;
41514;SDS011;27247;48.020;16.720;2022-11-04T06:06:14;128.48;;;51.88;;
41514;SDS011;27247;48.020;16.720;2022-11-04T06:10:24;122.43;;;51.88;;
41514;SDS011;27247;48.020;16.720;2022-11-04T06:14:34;130.85;;;52.08;;
41514;SDS011;27247;48.020;16.720;2022-11-04T06:18:45;125.07;;;52.50;;
41514;SDS011;27247;48.020;16.720;2022-11-04T06:22:56;124.65;;;51.20;;
41514;SDS011;27247;48.020;16.720;2022-11-04T06:27:06;133.37;;;53.30;;
41514;SDS011;27247;48.020;16.720;2022-11-04T06:31:18;120.93;;;50.35;;
41514;SDS011;27247;48.020;16.720;2022-11-04T06:35:29;121.10;;;52.20;;
41514;SDS011;27247;48.020;16.720;2022-11-04T06:39:39;128.23;;;50.57;;
41514;SDS011;27247;48.020;16.720;2022-11-04T06:43:50;117.70;;;51.08;;
41514;SDS011;27247;48.020;16.720;2022-11-04T06:48:00;117.78;;;49.58;;
41514;SDS011;27247;48.020;16.720;2022-11-04T06:52:10;107.40;;;45.57;;
41514;SDS011;27247;48.020;16.720;2022-11-04T06:56:20;120.90;;;48.57;;
41514;SDS011;27247;48.020;16.720;2022-11-04T07:00:31;98.03;;;41.72;;
41514;SDS011;27247;48.020;16.720;2022-11-04T07:04:41;103.65;;;43.55;;
41514;SDS011;27247;48.020;16.720;2022-11-04T07:08:52;102.20;;;39.57;;
41514;SDS011;27247;48.020;16.720;2022-11-04T07:13:02;98.35;;;41.15;;
41514;SDS011;27247;48.020;16.720;2022-11-04T07:17:13;106.30;;;41.85;;
41514;SDS011;27247;48.020;16.720;2022-11-04T07:21:23;112.85;;;46.00;;
41514;SDS011;27247;48.020;16.720;2022-11-04T07:25:33;112.03;;;45.60;;
41514;SDS011;27247;48.020;16.720;2022-11-04T07:29:44;128.03;;;47.30;;
41514;SDS011;27247;48.020;16.720;2022-11-04T07:33:54;117.30;;;46.47;;
41514;SDS011;27247;48.020;16.720;2022-11-04T07:38:04;119.85;;;47.85;;
41514;SDS011;27247;48.020;16.720;2022-11-04T07:42:15;123.88;;;48.83;;
41514;SDS011;27247;48.020;16.720;2022-11-04T07:46:25;124.63;;;49.30;;
41514;SDS011;27247;48.020;16.720;2022-11-04T07:50:37;126.28;;;48.03;;
41514;SDS011;27247;48.020;16.720;2022-11-04T07:54:49;119.30;;;48.03;;
41514;SDS011;27247;48.020;16.720;2022-11-04T07:58:59;132.95;;;50.35;;
41514;SDS011;27247;48.020;16.720;2022-11-04T08:03:09;128.07;;;48.53;;
41514;SDS011;27247;48.020;16.720;2022-11-04T08:07:20;146.68;;;50.60;;
41514;SDS011;27247;48.020;16.720;2022-11-04T08:11:30;128.63;;;46.90;;
41514;SDS011;27247;48.020;16.720;2022-11-04T08:15:40;116.28;;;46.63;;
41514;SDS011;27247;48.020;16.720;2022-11-04T08:19:51;119.07;;;48.33;;
41514;SDS011;27247;48.020;16.720;2022-11-04T08:24:01;129.00;;;49.58;;
41514;SDS011;27247;48.020;16.720;2022-11-04T08:28:12;117.63;;;45.88;;
41514;SDS011;27247;48.020;16.720;2022-11-04T08:32:26;108.10;;;45.38;;
41514;SDS011;27247;48.020;16.720;2022-11-04T08:36:37;110.35;;;47.13;;
41514;SDS011;27247;48.020;16.720;2022-11-04T08:40:49;120.97;;;45.45;;
41514;SDS011;27247;48.020;16.720;2022-11-04T08:45:00;111.95;;;45.13;;
41514;SDS011;27247;48.020;16.720;2022-11-04T08:49:11;109.13;;;44.63;;
41514;SDS011;27247;48.020;16.720;2022-11-04T08:53:21;105.45;;;43.67;;
41514;SDS011;27247;48.020;16.720;2022-11-04T08:57:31;97.60;;;42.27;;
41514;SDS011;27247;48.020;16.720;2022-11-04T09:01:42;90.67;;;39.37;;
41514;SDS011;27247;48.020;16.720;2022-11-04T09:05:53;95.25;;;41.33;;
41514;SDS011;27247;48.020;16.720;2022-11-04T09:10:03;101.07;;;41.97;;
41514;SDS011;27247;48.020;16.720;2022-11-04T09:14:15;100.13;;;41.28;;
41514;SDS011;27247;48.020;16.720;2022-11-04T09:18:26;105.07;;;43.67;;
41514;SDS011;27247;48.020;16.720;2022-11-04T09:22:37;111.18;;;43.67;;
41514;SDS011;27247;48.020;16.720;2022-11-04T09:26:47;105.35;;;44.28;;
41514;SDS011;27247;48.020;16.720;2022-11-04T09:30:57;106.00;;;42.87;;
41514;SDS011;27247;48.020;16.720;2022-11-04T09:35:08;102.72;;;40.60;;
41514;SDS011;27247;48.020;16.720;2022-11-04T09:39:18;90.90;;;41.65;;
41514;SDS011;27247;48.020;16.720;2022-11-04T09:43:31;91.23;;;39.30;;
41514;SDS011;27247;48.020;16.720;2022-11-04T09:48:02;83.60;;;36.33;;
41514;SDS011;27247;48.020;16.720;2022-11-04T09:52:25;91.03;;;37.47;;
41514;SDS011;27247;48.020;16.720;2022-11-04T09:56:42;82.47;;;37.30;;
41514;SDS011;27247;48.020;16.720;2022-11-04T10:01:42;85.72;;;37.58;;
41514;SDS011;27247;48.020;16.720;2022-11-04T10:05:38;91.43;;;36.95;;
41514;SDS011;27247;48.020;16.720;2022-11-04T10:23:31;90.53;;;38.70;;
41514;SDS011;27247;48.020;16.720;2022-11-04T10:27:44;91.80;;;39.80;;
41514;SDS011;27247;48.020;16.720;2022-11-04T10:31:57;95.07;;;39.92;;
41514;SDS011;27247;48.020;16.720;2022-11-04T10:36:10;85.88;;;37.78;;
41514;SDS011;27247;48.020;16.720;2022-11-04T10:40:23;91.00;;;38.80;;
41514;SDS011;27247;48.020;16.720;2022-11-04T10:44:35;95.40;;;43.45;;
41514;SDS011;27247;48.020;16.720;2022-11-04T10:53:08;80.82;;;37.83;;
41514;SDS011;27247;48.020;16.720;2022-11-04T10:57:23;84.43;;;37.42;;
41514;SDS011;27247;48.020;16.720;2022-11-04T11:01:34;78.30;;;36.25;;
41514;SDS011;27247;48.020;16.720;2022-11-04T11:05:44;85.80;;;37.53;;
41514;SDS011;27247;48.020;16.720;2022-11-04T11:09:55;85.07;;;37.00;;
41514;SDS011;27247;48.020;16.720;2022-11-04T11:14:17;84.10;;;37.08;;
41514;SDS011;27247;48.020;16.720;2022-11-04T11:18:38;87.88;;;39.78;;
41514;SDS011;27247;48.020;16.720;2022-11-04T11:22:49;85.03;;;39.05;;
41514;SDS011;27247;48.020;16.720;2022-11-04T11:27:01;98.55;;;40.53;;
41514;SDS011;27247;48.020;16.720;2022-11-04T11:31:24;94.55;;;41.05;;
41514;SDS011;27247;48.020;16.720;2022-11-04T11:35:36;88.43;;;40.17;;
41514;SDS011;27247;48.020;16.720;2022-11-04T11:39:51;93.07;;;40.00;;
41514;SDS011;27247;48.020;16.720;2022-11-04T11:44:06;84.95;;;37.40;;
41514;SDS011;27247;48.020;16.720;2022-11-04T11:48:30;78.82;;;36.45;;
41514;SDS011;27247;48.020;16.720;2022-11-04T11:52:53;78.93;;;36.40;;
41514;SDS011;27247;48.020;16.720;2022-11-04T12:06:27;71.35;;;31.67;;
41514;SDS011;27247;48.020;16.720;2022-11-04T12:11:04;58.97;;;28.52;;
41514;SDS011;27247;48.020;16.720;2022-11-04T12:15:28;64.15;;;30.85;;
41514;SDS011;27247;48.020;16.720;2022-11-04T12:24:37;68.57;;;31.92;;
41514;SDS011;27247;48.020;16.720;2022-11-04T12:29:08;82.00;;;33.10;;
41514;SDS011;27247;48.020;16.720;2022-11-04T12:33:38;71.10;;;32.92;;
41514;SDS011;27247;48.020;16.720;2022-11-04T12:56:08;61.90;;;32.03;;
41514;SDS011;27247;48.020;16.720;2022-11-04T13:00:29;54.63;;;28.15;;
41514;SDS011;27247;48.020;16.720;2022-11-04T13:04:53;53.22;;;27.17;;
41514;SDS011;27247;48.020;16.720;2022-11-04T13:13:38;44.53;;;22.30;;
41514;SDS011;27247;48.020;16.720;2022-11-04T13:17:50;39.53;;;22.85;;
41514;SDS011;27247;48.020;16.720;2022-11-04T13:22:06;37.63;;;20.73;;
41514;SDS011;27247;48.020;16.720;2022-11-04T13:26:23;35.65;;;20.85;;
41514;SDS011;27247;48.020;16.720;2022-11-04T13:30:39;38.25;;;21.75;;
41514;SDS011;27247;48.020;16.720;2022-11-04T13:35:00;36.72;;;21.85;;
41514;SDS011;27247;48.020;16.720;2022-11-04T13:39:38;36.60;;;19.65;;
41514;SDS011;27247;48.020;16.720;2022-11-04T13:44:00;31.67;;;17.55;;
41514;SDS011;27247;48.020;16.720;2022-11-04T13:48:15;29.90;;;16.95;;
41514;SDS011;27247;48.020;16.720;2022-11-04T13:52:30;27.88;;;15.80;;
41514;SDS011;27247;48.020;16.720;2022-11-04T13:56:41;26.80;;;16.02;;
41514;SDS011;27247;48.020;16.720;2022-11-04T14:09:51;22.75;;;13.70;;
41514;SDS011;27247;48.020;16.720;2022-11-04T14:14:07;26.70;;;14.68;;
41514;SDS011;27247;48.020;16.720;2022-11-04T14:18:31;24.90;;;13.60;;
41514;SDS011;27247;48.020;16.720;2022-11-04T14:26:51;18.92;;;11.43;;
41514;SDS011;27247;48.020;16.720;2022-11-04T14:31:04;19.70;;;11.27;;
41514;SDS011;27247;48.020;16.720;2022-11-04T14:35:19;30.02;;;15.95;;
41514;SDS011;27247;48.020;16.720;2022-11-04T14:39:32;22.35;;;13.95;;
41514;SDS011;27247;48.020;16.720;2022-11-04T14:43:47;30.67;;;17.23;;
41514;SDS011;27247;48.020;16.720;2022-11-04T14:48:04;24.83;;;15.13;;
41514;SDS011;27247;48.020;16.720;2022-11-04T14:52:28;18.48;;;11.02;;
41514;SDS011;27247;48.020;16.720;2022-11-04T14:56:42;6.72;;;3.63;;
41514;SDS011;27247;48.020;16.720;2022-11-04T15:00:54;7.53;;;4.40;;
41514;SDS011;27247;48.020;16.720;2022-11-04T15:05:20;9.43;;;6.38;;
41514;SDS011;27247;48.020;16.720;2022-11-04T15:09:39;2.38;;;1.80;;
41514;SDS011;27247;48.020;16.720;2022-11-04T15:13:55;5.10;;;2.50;;
41514;SDS011;27247;48.020;16.720;2022-11-04T15:18:07;2.72;;;1.90;;
41514;SDS011;27247;48.020;16.720;2022-11-04T15:22:22;6.03;;;4.22;;
41514;SDS011;27247;48.020;16.720;2022-11-04T15:26:33;3.53;;;2.70;;
41514;SDS011;27247;48.020;16.720;2022-11-04T15:30:55;3.97;;;2.88;;
41514;SDS011;27247;48.020;16.720;2022-11-04T15:35:10;5.03;;;3.00;;
41514;SDS011;27247;48.020;16.720;2022-11-04T15:39:23;3.75;;;2.85;;
41514;SDS011;27247;48.020;16.720;2022-11-04T15:43:38;4.25;;;2.22;;
41514;SDS011;27247;48.020;16.720;2022-11-04T15:47:55;6.03;;;2.70;;
41514;SDS011;27247;48.020;16.720;2022-11-04T15:52:31;5.43;;;2.70;;
41514;SDS011;27247;48.020;16.720;2022-11-04T15:56:43;6.57;;;3.67;;
41514;SDS011;27247;48.020;16.720;2022-11-04T16:01:01;5.72;;;2.40;;
41514;SDS011;27247;48.020;16.720;2022-11-04T16:09:25;6.32;;;3.40;;
41514;SDS011;27247;48.020;16.720;2022-11-04T16:13:36;10.27;;;5.88;;
41514;SDS011;27247;48.020;16.720;2022-11-04T16:17:47;1.40;;;1.30;;
41514;SDS011;27247;48.020;16.720;2022-11-04T16:22:00;1.48;;;1.05;;
41514;SDS011;27247;48.020;16.720;2022-11-04T16:26:15;1.02;;;0.75;;
41514;SDS011;27247;48.020;16.720;2022-11-04T16:30:26;1.15;;;0.60;;
41514;SDS011;27247;48.020;16.720;2022-11-04T16:34:38;0.82;;;0.50;;
41514;SDS011;27247;48.020;16.720;2022-11-04T16:38:55;1.70;;;0.80;;
41514;SDS011;27247;48.020;16.720;2022-11-04T16:43:07;1.95;;;1.20;;
41514;SDS011;27247;48.020;16.720;2022-11-04T16:47:18;1.48;;;1.00;;
41514;SDS011;27247;48.020;16.720;2022-11-04T16:51:30;0.40;;;0.38;;
41514;SDS011;27247;48.020;16.720;2022-11-04T16:55:43;0.20;;;0.20;;
41514;SDS011;27247;48.020;16.720;2022-11-04T16:59:55;0.35;;;0.20;;
41514;SDS011;27247;48.020;16.720;2022-11-04T17:04:06;0.30;;;0.30;;
41514;SDS011;27247;48.020;16.720;2022-11-04T17:08:17;0.77;;;0.52;;
41514;SDS011;27247;48.020;16.720;2022-11-04T17:12:27;1.77;;;1.27;;
41514;SDS011;27247;48.020;16.720;2022-11-04T17:16:38;4.88;;;1.30;;
41514;SDS011;27247;48.020;16.720;2022-11-04T17:20:50;1.77;;;1.13;;
41514;SDS011;27247;48.020;16.720;2022-11-04T17:25:03;1.98;;;1.33;;
41514;SDS011;27247;48.020;16.720;2022-11-04T17:29:23;0.50;;;0.50;;
41514;SDS011;27247;48.020;16.720;2022-11-04T17:33:34;1.38;;;0.30;;
41514;SDS011;27247;48.020;16.720;2022-11-04T17:37:44;0.40;;;0.40;;
41514;SDS011;27247;48.020;16.720;2022-11-04T17:41:59;0.65;;;0.50;;
41514;SDS011;27247;48.020;16.720;2022-11-04T17:46:29;2.17;;;0.43;;
41514;SDS011;27247;48.020;16.720;2022-11-04T17:50:44;0.45;;;0.40;;
41514;SDS011;27247;48.020;16.720;2022-11-04T17:54:56;0.55;;;0.50;;
41514;SDS011;27247;48.020;16.720;2022-11-04T17:59:09;0.38;;;0.30;;
41514;SDS011;27247;48.020;16.720;2022-11-04T18:03:20;0.40;;;0.30;;
41514;SDS011;27247;48.020;16.720;2022-11-04T18:07:31;0.38;;;0.35;;
41514;SDS011;27247;48.020;16.720;2022-11-04T18:11:42;0.30;;;0.30;;
41514;SDS011;27247;48.020;16.720;2022-11-04T18:16:12;1.92;;;1.08;;
41514;SDS011;27247;48.020;16.720;2022-11-04T18:20:23;1.00;;;0.60;;
41514;SDS011;27247;48.020;16.720;2022-11-04T18:24:34;1.13;;;0.60;;
41514;SDS011;27247;48.020;16.720;2022-11-04T18:28:44;3.58;;;1.48;;
41514;SDS011;27247;48.020;16.720;2022-11-04T18:32:55;1.13;;;0.73;;
41514;SDS011;27247;48.020;16.720;2022-11-04T18:37:06;0.55;;;0.55;;
41514;SDS011;27247;48.020;16.720;2022-11-04T18:41:17;0.60;;;0.60;;
41514;SDS011;27247;48.020;16.720;2022-11-04T18:45:28;2.42;;;0.98;;
41514;SDS011;27247;48.020;16.720;2022-11-04T18:49:39;1.65;;;1.10;;
41514;SDS011;27247;48.020;16.720;2022-11-04T18:53:50;2.40;;;0.70;;
41514;SDS011;27247;48.020;16.720;2022-11-04T18:58:01;2.63;;;0.80;;
41514;SDS011;27247;48.020;16.720;2022-11-04T19:02:14;1.38;;;0.68;;
41514;SDS011;27247;48.020;16.720;2022-11-04T19:06:30;0.77;;;0.70;;
41514;SDS011;27247;48.020;16.720;2022-11-04T19:10:43;1.73;;;1.17;;
41514;SDS011;27247;48.020;16.720;2022-11-04T19:14:54;1.33;;;0.90;;
41514;SDS011;27247;48.020;16.720;2022-11-04T19:19:06;1.35;;;0.95;;
41514;SDS011;27247;48.020;16.720;2022-11-04T19:23:24;1.25;;;0.90;;
41514;SDS011;27247;48.020;16.720;2022-11-04T19:27:35;1.00;;;0.90;;
41514;SDS011;27247;48.020;16.720;2022-11-04T19:31:45;2.75;;;1.00;;
41514;SDS011;27247;48.020;16.720;2022-11-04T19:35:57;2.25;;;1.27;;
41514;SDS011;27247;48.020;16.720;2022-11-04T19:40:08;4.18;;;1.83;;
41514;SDS011;27247;48.020;16.720;2022-11-04T19:44:20;2.72;;;1.00;;
41514;SDS011;27247;48.020;16.720;2022-11-04T19:48:31;3.15;;;0.90;;
41514;SDS011;27247;48.020;16.720;2022-11-04T19:52:42;2.35;;;0.88;;
41514;SDS011;27247;48.020;16.720;2022-11-04T19:56:52;3.17;;;1.30;;
41514;SDS011;27247;48.020;16.720;2022-11-04T20:01:05;3.47;;;1.30;;
41514;SDS011;27247;48.020;16.720;2022-11-04T20:05:16;2.63;;;1.20;;
41514;SDS011;27247;48.020;16.720;2022-11-04T20:09:27;1.95;;;1.17;;
41514;SDS011;27247;48.020;16.720;2022-11-04T20:13:38;1.83;;;1.00;;
41514;SDS011;27247;48.020;16.720;2022-11-04T20:17:56;2.20;;;0.70;;
41514;SDS011;27247;48.020;16.720;2022-11-04T20:22:06;1.45;;;1.02;;
41514;SDS011;27247;48.020;16.720;2022-11-04T20:26:19;2.95;;;1.25;;
41514;SDS011;27247;48.020;16.720;2022-11-04T20:30:36;0.98;;;0.88;;
41514;SDS011;27247;48.020;16.720;2022-11-04T20:34:47;5.57;;;2.22;;
41514;SDS011;27247;48.020;16.720;2022-11-04T20:39:19;3.03;;;1.10;;
41514;SDS011;27247;48.020;16.720;2022-11-04T20:43:34;1.05;;;0.93;;
41514;SDS011;27247;48.020;16.720;2022-11-04T20:47:46;1.02;;;0.90;;
41514;SDS011;27247;48.020;16.720;2022-11-04T20:51:56;3.22;;;0.88;;
41514;SDS011;27247;48.020;16.720;2022-11-04T20:56:10;1.42;;;0.90;;
41514;SDS011;27247;48.020;16.720;2022-11-04T21:00:23;2.42;;;1.50;;
41514;SDS011;27247;48.020;16.720;2022-11-04T21:04:33;2.88;;;1.40;;
41514;SDS011;27247;48.020;16.720;2022-11-04T21:08:45;2.58;;;1.30;;
41514;SDS011;27247;48.020;16.720;2022-11-04T21:12:56;2.67;;;1.58;;
41514;SDS011;27247;48.020;16.720;2022-11-04T21:17:06;2.20;;;1.25;;
41514;SDS011;27247;48.020;16.720;2022-11-04T21:21:17;1.55;;;1.40;;
41514;SDS011;27247;48.020;16.720;2022-11-04T21:25:27;1.95;;;1.20;;
41514;SDS011;27247;48.020;16.720;2022-11-04T21:29:38;3.20;;;1.60;;
41514;SDS011;27247;48.020;16.720;2022-11-04T21:33:48;2.28;;;1.70;;
41514;SDS011;27247;48.020;16.720;2022-11-04T21:37:59;1.80;;;1.55;;
41514;SDS011;27247;48.020;16.720;2022-11-04T21:42:10;3.42;;;1.67;;
41514;SDS011;27247;48.020;16.720;2022-11-04T21:46:20;2.05;;;1.73;;
41514;SDS011;27247;48.020;16.720;2022-11-04T21:50:31;2.55;;;1.90;;
41514;SDS011;27247;48.020;16.720;2022-11-04T21:54:42;1.85;;;1.75;;
41514;SDS011;27247;48.020;16.720;2022-11-04T21:58:52;4.22;;;2.90;;
41514;SDS011;27247;48.020;16.720;2022-11-04T22:03:03;4.93;;;2.42;;
41514;SDS011;27247;48.020;16.720;2022-11-04T22:07:14;3.92;;;2.20;;
41514;SDS011;27247;48.020;16.720;2022-11-04T22:11:25;2.28;;;1.98;;
41514;SDS011;27247;48.020;16.720;2022-11-04T22:15:36;3.72;;;1.83;;
41514;SDS011;27247;48.020;16.720;2022-11-04T22:20:05;2.13;;;1.92;;
41514;SDS011;27247;48.020;16.720;2022-11-04T22:24:16;3.67;;;2.22;;
41514;SDS011;27247;48.020;16.720;2022-11-04T22:28:27;2.70;;;1.92;;
41514;SDS011;27247;48.020;16.720;2022-11-04T22:32:38;4.45;;;2.40;;
41514;SDS011;27247;48.020;16.720;2022-11-04T22:36:49;2.30;;;2.10;;
41514;SDS011;27247;48.020;16.720;2022-11-04T22:40:59;3.33;;;2.13;;
41514;SDS011;27247;48.020;16.720;2022-11-04T22:45:11;3.75;;;2.40;;
41514;SDS011;27247;48.020;16.720;2022-11-04T22:49:24;5.25;;;2.53;;
41514;SDS011;27247;48.020;16.720;2022-11-04T22:53:35;4.47;;;3.45;;
41514;SDS011;27247;48.020;16.720;2022-11-04T22:57:47;6.15;;;3.22;;
41514;SDS011;27247;48.020;16.720;2022-11-04T23:01:58;4.47;;;2.95;;
41514;SDS011;27247;48.020;16.720;2022-11-04T23:06:13;2.78;;;2.15;;
41514;SDS011;27247;48.020;16.720;2022-11-04T23:10:28;2.60;;;2.40;;
41514;SDS011;27247;48.020;16.720;2022-11-04T23:14:57;2.88;;;2.28;;
41514;SDS011;27247;48.020;16.720;2022-11-04T23:19:26;6.05;;;2.20;;
41514;SDS011;27247;48.020;16.720;2022-11-04T23:23:37;3.08;;;2.33;;
41514;SDS011;27247;48.020;16.720;2022-11-04T23:28:05;2.30;;;2.10;;
41514;SDS011;27247;48.020;16.720;2022-11-04T23:32:34;2.72;;;1.83;;
